Time;durP1;ratioP1;P1;durP2;ratioP2;P2;SDS_P1;SDS_P2;PMS_P1;PMS_P2;Temp;Humidity;BMP_temperature;BMP_pressure;BME280_temperature;BME280_humidity;BME280_pressure;Samples;Min_cycle;Max_cycle;Signal;HPM_P1;HPM_P2
2024/01/09 00:01:43;;;;;;;12.00;5.70;;;;;;;-12.90;58.50;101210.21;105865;1251;61292;-67
2024/01/09 00:04:11;;;;;;;10.80;5.30;;;;;;;-12.93;58.51;101216.91;105989;1250;61330;-67
2024/01/09 00:06:38;;;;;;;13.80;5.50;;;;;;;-12.97;58.44;101221.02;105847;1254;66064;-67
2024/01/09 00:09:05;;;;;;;12.40;5.70;;;;;;;-13.01;58.41;101228.17;105898;1251;61267;-68
2024/01/09 00:11:32;;;;;;;10.20;5.00;;;;;;;-13.05;58.34;101227.73;105955;1250;63929;-67
2024/01/09 00:13:59;;;;;;;11.90;5.70;;;;;;;-13.09;58.38;101238.30;106432;1249;61237;-67
2024/01/09 00:16:26;;;;;;;11.80;5.20;;;;;;;-13.12;58.37;101245.14;105901;1250;61238;-67
2024/01/09 00:18:53;;;;;;;12.50;5.60;;;;;;;-13.17;58.21;101246.19;106048;1254;66408;-67
2024/01/09 00:21:20;;;;;;;13.00;5.50;;;;;;;-13.22;58.09;101250.63;105938;1252;61320;-67
2024/01/09 00:23:47;;;;;;;11.40;5.10;;;;;;;-13.28;58.05;101255.88;105850;1249;62499;-68
2024/01/09 00:26:14;;;;;;;10.10;5.40;;;;;;;-13.31;58.14;101259.52;105959;1250;61715;-67
2024/01/09 00:28:41;;;;;;;9.90;5.00;;;;;;;-13.33;58.12;101265.20;105903;1253;61230;-67
2024/01/09 00:31:08;;;;;;;12.90;5.70;;;;;;;-13.37;58.14;101262.89;105656;1253;67981;-67
2024/01/09 00:33:35;;;;;;;10.60;5.10;;;;;;;-13.41;58.09;101263.79;106125;1253;62039;-68
2024/01/09 00:36:03;;;;;;;10.50;5.20;;;;;;;-13.46;58.07;101259.89;105659;1251;63836;-68
2024/01/09 00:38:30;;;;;;;11.70;5.70;;;;;;;-13.51;58.07;101257.86;106080;1250;61186;-68
2024/01/09 00:40:57;;;;;;;10.20;5.10;;;;;;;-13.54;58.07;101267.91;105823;1250;61271;-68
2024/01/09 00:43:24;;;;;;;14.90;6.10;;;;;;;-13.57;58.06;101267.14;105842;1252;65951;-66
2024/01/09 00:45:51;;;;;;;11.70;5.20;;;;;;;-13.61;58.04;101271.27;105882;1250;61275;-68
2024/01/09 00:48:18;;;;;;;12.80;5.70;;;;;;;-13.63;57.99;101269.64;105920;1255;64022;-67
2024/01/09 00:50:45;;;;;;;13.20;6.10;;;;;;;-13.67;57.98;101271.73;105789;1251;61358;-68
2024/01/09 00:53:12;;;;;;;11.70;5.80;;;;;;;-13.69;57.92;101273.04;106297;1249;61703;-66
2024/01/09 00:55:39;;;;;;;14.30;6.00;;;;;;;-13.72;57.81;101268.88;106117;1250;65977;-67
2024/01/09 00:58:06;;;;;;;11.90;5.50;;;;;;;-13.75;57.76;101271.82;105722;1253;61312;-68
2024/01/09 01:00:32;;;;;;;10.90;5.40;;;;;;;-13.77;57.76;101282.24;105762;1250;71434;-68
2024/01/09 01:03:03;;;;;;;13.10;5.80;;;;;;;-13.81;57.72;101293.45;106307;1250;61266;-67
2024/01/09 01:05:30;;;;;;;9.80;5.00;;;;;;;-13.85;57.60;101295.69;105969;1250;61251;-67
2024/01/09 01:07:57;;;;;;;11.10;5.40;;;;;;;-13.88;57.62;101302.89;105784;1253;66920;-67
2024/01/09 01:10:24;;;;;;;10.50;4.80;;;;;;;-13.89;57.51;101307.42;105727;1251;61253;-67
2024/01/09 01:12:51;;;;;;;10.70;5.00;;;;;;;-13.89;57.50;101302.65;105885;1250;64329;-68
2024/01/09 01:15:17;;;;;;;13.40;5.40;;;;;;;-13.88;57.47;101302.20;105632;1254;61672;-67
2024/01/09 01:17:44;;;;;;;10.60;5.90;;;;;;;-13.89;57.35;101301.30;105824;1250;61247;-69
2024/01/09 01:20:11;;;;;;;10.50;5.60;;;;;;;-13.90;57.28;101307.51;105976;1251;64707;-66
2024/01/09 01:22:39;;;;;;;13.80;5.90;;;;;;;-13.92;57.28;101312.20;105947;1250;61273;-67
2024/01/09 01:25:08;;;;;;;14.10;6.10;;;;;;;-13.93;57.25;101316.59;106024;1250;63929;-67
2024/01/09 01:27:34;;;;;;;10.10;5.30;;;;;;;-13.93;57.13;101323.34;106001;1254;61223;-68
2024/01/09 01:30:01;;;;;;;14.00;6.20;;;;;;;-13.96;57.14;101329.35;105968;1250;61359;-68
2024/01/09 01:32:29;;;;;;;13.50;5.70;;;;;;;-13.97;57.20;101338.61;105915;1251;65874;-67
2024/01/09 01:34:56;;;;;;;13.10;6.00;;;;;;;-13.98;57.18;101341.80;105869;1250;61275;-67
2024/01/09 01:37:23;;;;;;;13.40;6.20;;;;;;;-13.98;57.23;101344.36;105760;1251;63917;-67
2024/01/09 01:39:50;;;;;;;14.00;5.80;;;;;;;-13.99;57.08;101338.71;105911;1250;61315;-67
2024/01/09 01:42:17;;;;;;;9.90;5.40;;;;;;;-14.02;57.07;101336.55;105940;1251;61208;-66
2024/01/09 01:44:44;;;;;;;12.80;6.20;;;;;;;-14.06;57.01;101339.31;105815;1253;65617;-67
2024/01/09 01:47:11;;;;;;;12.60;5.70;;;;;;;-14.08;57.08;101334.83;105924;1254;61347;-68
2024/01/09 01:49:38;;;;;;;10.00;5.70;;;;;;;-14.09;57.11;101337.30;105730;1252;63883;-66
2024/01/09 01:52:05;;;;;;;12.30;5.90;;;;;;;-14.11;56.97;101335.73;105600;1251;231599;-66
2024/01/09 01:54:32;;;;;;;11.20;4.80;;;;;;;-14.13;56.89;101339.73;105602;1256;61220;-67
2024/01/09 01:56:59;;;;;;;8.40;4.60;;;;;;;-14.14;56.82;101345.95;106218;1251;67065;-68
2024/01/09 01:59:26;;;;;;;11.50;4.90;;;;;;;-14.17;56.74;101353.14;105755;1250;61248;-67
2024/01/09 02:01:52;;;;;;;12.80;6.00;;;;;;;-14.20;56.70;101352.17;105942;1251;64069;-68
2024/01/09 02:04:21;;;;;;;10.90;5.10;;;;;;;-14.23;56.68;101357.13;105755;1253;61337;-68
2024/01/09 02:06:48;;;;;;;11.30;5.50;;;;;;;-14.27;56.58;101364.58;105755;1250;61253;-67
2024/01/09 02:09:15;;;;;;;10.60;5.30;;;;;;;-14.30;56.63;101367.70;105787;1254;65763;-67
2024/01/09 02:11:42;;;;;;;9.70;5.20;;;;;;;-14.29;56.57;101370.59;105724;1250;61491;-67
2024/01/09 02:14:10;;;;;;;13.30;6.10;;;;;;;-14.32;56.47;101369.67;105787;1255;63833;-68
2024/01/09 02:16:37;;;;;;;11.90;5.30;;;;;;;-14.35;56.45;101371.59;105621;1251;61256;-66
2024/01/09 02:19:04;;;;;;;10.60;5.50;;;;;;;-14.37;56.44;101374.05;105845;1250;61270;-68
2024/01/09 02:21:31;;;;;;;11.70;5.70;;;;;;;-14.40;56.32;101372.39;105622;1251;64526;-68
2024/01/09 02:23:58;;;;;;;11.50;4.90;;;;;;;-14.43;56.26;101376.86;105844;1250;61297;-67
2024/01/09 02:26:31;;;;;;;11.60;5.30;;;;;;;-14.49;56.18;101375.67;105966;1250;64112;-67
2024/01/09 02:29:21;;;;;;;;;;;;;;;-14.50;56.26;101378.99;106183;1251;61202;-67
2024/01/09 02:31:48;;;;;;;11.80;5.30;;;;;;;-14.50;56.30;101389.33;105692;1249;61379;-68
2024/01/09 02:34:15;;;;;;;8.80;4.60;;;;;;;-14.54;56.24;101395.44;105934;1250;66043;-68
2024/01/09 02:36:42;;;;;;;13.40;5.60;;;;;;;-14.57;56.10;101392.77;106065;1250;61258;-68
2024/01/09 02:39:08;;;;;;;12.50;5.00;;;;;;;-14.58;56.10;101391.86;106200;1251;63967;-68
2024/01/09 02:41:38;;;;;;;10.60;5.30;;;;;;;-14.58;56.13;101394.75;106011;1251;61152;-67
2024/01/09 02:44:05;;;;;;;8.70;5.00;;;;;;;-14.58;56.15;101391.53;106080;1250;61214;-67
2024/01/09 02:46:32;;;;;;;7.80;4.10;;;;;;;-14.58;56.22;101394.05;105915;1253;66085;-67
2024/01/09 02:48:59;;;;;;;8.80;4.50;;;;;;;-14.58;56.17;101384.59;105995;1256;61302;-68
2024/01/09 02:51:26;;;;;;;10.70;4.40;;;;;;;-14.56;56.17;101384.36;105915;1250;64093;-67
2024/01/09 02:53:53;;;;;;;10.30;5.00;;;;;;;-14.55;56.20;101380.67;106224;1253;61136;-67
2024/01/09 02:56:20;;;;;;;10.60;4.90;;;;;;;-14.55;56.17;101376.95;106007;1250;61343;-66
2024/01/09 02:58:47;;;;;;;11.00;5.40;;;;;;;-14.56;56.19;101378.45;105910;1251;66074;-67
2024/01/09 03:01:14;;;;;;;10.00;4.70;;;;;;;-14.57;56.26;101379.10;105962;1253;61218;-66
2024/01/09 03:03:41;;;;;;;10.80;4.80;;;;;;;-14.56;56.26;101378.45;106067;1256;63806;-67
2024/01/09 03:06:08;;;;;;;11.70;5.20;;;;;;;-14.54;56.44;101390.02;106139;1250;61209;-67
2024/01/09 03:08:35;;;;;;;10.30;4.70;;;;;;;-14.52;56.35;101393.63;105950;1253;61218;-68
2024/01/09 03:11:03;;;;;;;10.60;4.90;;;;;;;-14.53;56.29;101395.79;105970;1249;64749;-68
2024/01/09 03:13:30;;;;;;;8.30;4.40;;;;;;;-14.53;56.32;101396.15;105827;1251;61677;-67
2024/01/09 03:15:57;;;;;;;8.60;4.30;;;;;;;-14.51;56.33;101397.73;105783;1254;64485;-67
2024/01/09 03:18:24;;;;;;;10.50;4.70;;;;;;;-14.48;56.40;101402.23;106010;1250;61222;-67
2024/01/09 03:20:51;;;;;;;10.90;4.60;;;;;;;-14.47;56.37;101405.19;106026;1250;61119;-67
2024/01/09 03:23:18;;;;;;;9.70;4.60;;;;;;;-14.46;56.36;101405.04;105584;1255;65837;-68
2024/01/09 03:25:45;;;;;;;9.20;4.50;;;;;;;-14.46;56.37;101411.81;105657;1253;61353;-67
2024/01/09 03:28:12;;;;;;;12.30;5.50;;;;;;;-14.49;56.32;101420.64;105519;1256;62536;-68
2024/01/09 03:30:40;;;;;;;12.80;5.80;;;;;;;-14.51;56.30;101424.64;105828;1251;61313;-68
2024/01/09 03:33:06;;;;;;;11.40;4.80;;;;;;;-14.49;56.32;101425.36;105492;1251;61166;-67
2024/01/09 03:35:34;;;;;;;13.70;6.70;;;;;;;-14.48;56.31;101426.77;105587;1251;66071;-68
2024/01/09 03:38:01;;;;;;;15.60;6.30;;;;;;;-14.51;56.27;101430.52;106336;1251;61353;-67
2024/01/09 03:40:28;;;;;;;14.90;6.80;;;;;;;-14.53;56.23;101432.65;106002;1251;64615;-66
2024/01/09 03:42:55;;;;;;;12.20;5.40;;;;;;;-14.54;56.19;101433.13;105730;1251;61341;-67
2024/01/09 03:45:22;;;;;;;11.50;6.00;;;;;;;-14.57;56.22;101436.40;105986;1251;61211;-67
2024/01/09 03:47:48;;;;;;;11.60;5.60;;;;;;;-14.59;56.26;101432.06;105860;1250;66933;-66
2024/01/09 03:50:15;;;;;;;11.80;5.50;;;;;;;-14.61;56.37;101435.41;105857;1251;61317;-67
2024/01/09 03:52:42;;;;;;;11.80;5.60;;;;;;;-14.61;56.32;101439.09;105942;1253;64187;-66
2024/01/09 03:55:09;;;;;;;11.90;5.50;;;;;;;-14.62;56.21;101438.40;105652;1250;61269;-68
2024/01/09 03:57:38;;;;;;;13.50;6.20;;;;;;;-14.65;56.15;101435.58;105852;1251;62735;-67
2024/01/09 04:00:06;;;;;;;12.00;5.30;;;;;;;-14.66;56.19;101436.17;105949;1251;65885;-67
2024/01/09 04:02:34;;;;;;;11.20;5.30;;;;;;;-14.67;56.15;101442.05;105997;1253;61219;-68
2024/01/09 04:05:01;;;;;;;12.00;5.30;;;;;;;-14.67;56.21;101442.42;105948;1251;62698;-66
2024/01/09 04:07:28;;;;;;;10.80;5.50;;;;;;;-14.66;56.18;101439.23;105783;1250;61308;-67
2024/01/09 04:09:55;;;;;;;9.70;5.20;;;;;;;-14.68;56.14;101440.20;105753;1251;61516;-69
2024/01/09 04:12:22;;;;;;;12.30;5.50;;;;;;;-14.69;56.06;101438.44;105789;1253;65975;-69
2024/01/09 04:14:49;;;;;;;14.00;5.80;;;;;;;-14.71;56.09;101437.34;105838;1250;68277;-68
2024/01/09 04:17:16;;;;;;;11.10;5.60;;;;;;;-14.73;56.14;101437.13;105756;1253;62805;-68
2024/01/09 04:19:43;;;;;;;10.10;5.20;;;;;;;-14.74;56.08;101442.16;105706;1250;61253;-67
2024/01/09 04:22:10;;;;;;;13.30;5.60;;;;;;;-14.75;56.04;101447.70;105839;1250;61225;-67
2024/01/09 04:24:36;;;;;;;13.20;5.70;;;;;;;-14.75;55.99;101452.95;105835;1250;64714;-67
2024/01/09 04:27:03;;;;;;;10.70;5.50;;;;;;;-14.75;55.82;101456.15;105699;1250;62085;-66
2024/01/09 04:29:30;;;;;;;11.70;5.60;;;;;;;-14.77;55.79;101460.98;105892;1251;64798;-67
2024/01/09 04:31:58;;;;;;;16.20;6.60;;;;;;;-14.78;55.73;101459.55;105779;1250;61129;-68
2024/01/09 04:34:25;;;;;;;13.50;6.30;;;;;;;-14.80;55.52;101459.49;105810;1250;61206;-68
2024/01/09 04:36:52;;;;;;;15.20;7.30;;;;;;;-14.80;55.57;101457.98;105909;1253;65947;-68
2024/01/09 04:39:19;;;;;;;12.70;6.20;;;;;;;-14.78;55.49;101459.23;105903;1250;61308;-67
2024/01/09 04:41:46;;;;;;;13.20;5.90;;;;;;;-14.82;55.29;101462.45;105657;1253;64940;-66
2024/01/09 04:44:13;;;;;;;12.60;5.60;;;;;;;-14.85;55.33;101464.35;106081;1250;61222;-67
2024/01/09 04:46:40;;;;;;;11.60;5.60;;;;;;;-14.88;55.31;101468.27;105569;1249;61218;-67
2024/01/09 04:49:07;;;;;;;14.20;5.60;;;;;;;-14.89;55.36;101470.27;105820;1253;66110;-67
2024/01/09 04:51:34;;;;;;;12.80;5.90;;;;;;;-14.88;55.40;101468.27;105695;1250;61245;-67
2024/01/09 04:54:00;;;;;;;9.50;5.00;;;;;;;-14.86;55.38;101464.95;105815;1250;64121;-67
2024/01/09 04:56:27;;;;;;;12.50;5.10;;;;;;;-14.85;55.40;101467.71;105832;1251;61253;-68
2024/01/09 04:58:54;;;;;;;11.80;5.30;;;;;;;-14.84;55.49;101469.67;106022;1254;61310;-66
2024/01/09 05:01:22;;;;;;;11.50;5.30;;;;;;;-14.81;55.52;101470.62;105900;1251;64775;-67
2024/01/09 05:03:50;;;;;;;11.50;5.00;;;;;;;-14.79;55.37;101469.51;105915;1250;61356;-68
2024/01/09 05:06:17;;;;;;;8.60;4.30;;;;;;;-14.77;55.34;101475.99;105632;1255;63705;-68
2024/01/09 05:08:45;;;;;;;10.40;4.70;;;;;;;-14.74;55.36;101479.49;105595;1251;61260;-70
2024/01/09 05:11:12;;;;;;;10.90;5.10;;;;;;;-14.72;55.29;101480.45;105764;1256;61184;-68
2024/01/09 05:13:42;;;;;;;10.80;4.80;;;;;;;-14.72;55.20;101483.82;105783;1251;66088;-69
2024/01/09 05:16:08;;;;;;;12.80;5.50;;;;;;;-14.73;55.00;101484.60;105884;1250;62614;-68
2024/01/09 05:18:35;;;;;;;10.20;5.20;;;;;;;-14.73;55.03;101486.30;105872;1255;65897;-65
2024/01/09 05:21:04;;;;;;;13.70;5.30;;;;;;;-14.71;55.14;101490.95;105655;1251;61348;-67
2024/01/09 05:23:31;;;;;;;11.00;4.50;;;;;;;-14.68;55.07;101494.27;106023;1250;61327;-67
2024/01/09 05:25:58;;;;;;;9.00;5.00;;;;;;;-14.65;55.14;101494.58;105913;1250;64670;-68
2024/01/09 05:28:27;;;;;;;10.70;5.50;;;;;;;-14.62;55.13;101496.55;106064;1250;61307;-65
2024/01/09 05:30:54;;;;;;;11.20;5.20;;;;;;;-14.61;55.16;101501.15;105907;1250;64079;-66
2024/01/09 05:33:21;;;;;;;11.80;5.00;;;;;;;-14.61;55.22;101506.73;106117;1251;61241;-65
2024/01/09 05:35:48;;;;;;;10.30;4.70;;;;;;;-14.60;55.23;101507.98;105817;1251;61212;-66
2024/01/09 05:38:15;;;;;;;11.40;5.10;;;;;;;-14.59;55.26;101508.00;105879;1250;66069;-65
2024/01/09 05:40:46;;;;;;;11.80;5.70;;;;;;;-14.58;55.38;101509.88;105928;1250;61340;-66
2024/01/09 05:43:13;;;;;;;10.10;5.30;;;;;;;-14.57;55.42;101509.96;105965;1253;64040;-65
2024/01/09 05:45:40;;;;;;;10.50;4.60;;;;;;;-14.55;55.46;101511.23;105913;1253;61174;-66
2024/01/09 05:48:07;;;;;;;13.40;6.00;;;;;;;-14.52;55.62;101517.23;107878;1250;61228;-66
2024/01/09 05:50:35;;;;;;;10.80;4.80;;;;;;;-14.49;55.70;101518.02;106048;1253;66037;-66
2024/01/09 05:53:02;;;;;;;8.80;4.60;;;;;;;-14.47;55.72;101516.44;105820;1253;61347;-66
2024/01/09 05:55:31;;;;;;;9.00;4.50;;;;;;;-14.46;55.83;101518.86;105766;1253;64088;-63
2024/01/09 05:57:58;;;;;;;8.70;4.50;;;;;;;-14.46;55.96;101521.06;105745;1251;61228;-66
2024/01/09 06:00:25;;;;;;;10.30;5.70;;;;;;;-14.43;56.01;101524.16;106061;1250;61327;-64
2024/01/09 06:02:52;;;;;;;9.80;4.60;;;;;;;-14.39;56.18;101529.74;105798;1253;66039;-64
2024/01/09 06:05:20;;;;;;;10.30;5.00;;;;;;;-14.35;56.32;101528.91;106021;1255;61306;-65
2024/01/09 06:07:47;;;;;;;13.30;6.20;;;;;;;-14.32;56.38;101526.80;105974;1250;62583;-65
2024/01/09 06:10:14;;;;;;;12.80;7.00;;;;;;;-14.29;56.52;101531.12;105857;1251;61228;-65
2024/01/09 06:12:41;;;;;;;10.40;5.80;;;;;;;-14.27;56.53;101529.89;105937;1250;61253;-65
2024/01/09 06:15:08;;;;;;;13.40;6.30;;;;;;;-14.24;56.55;101528.48;105919;1254;65978;-63
2024/01/09 06:17:36;;;;;;;19.00;7.90;;;;;;;-14.22;56.61;101520.77;105879;1251;61244;-65
2024/01/09 06:20:04;;;;;;;17.30;7.80;;;;;;;-14.21;56.71;101521.13;105910;1251;65405;-63
2024/01/09 06:22:32;;;;;;;16.00;7.50;;;;;;;-14.19;56.79;101518.20;105763;1253;61366;-65
2024/01/09 06:25:00;;;;;;;15.00;7.20;;;;;;;-14.13;56.90;101514.69;105960;1250;61315;-64
2024/01/09 06:27:29;;;;;;;13.70;6.90;;;;;;;-14.07;57.00;101514.41;105925;1250;65012;-65
2024/01/09 06:29:56;;;;;;;17.10;8.40;;;;;;;-14.03;56.98;101518.30;106049;1251;61318;-64
2024/01/09 06:32:26;;;;;;;12.70;6.40;;;;;;;-13.97;57.00;101516.81;105817;1250;63677;-63
2024/01/09 06:34:56;;;;;;;14.20;6.10;;;;;;;-13.92;57.02;101518.20;105703;1251;61285;-64
2024/01/09 06:37:23;;;;;;;13.50;5.80;;;;;;;-13.90;56.81;101509.98;105879;1250;61138;-67
2024/01/09 06:39:51;;;;;;;11.00;5.70;;;;;;;-13.87;56.81;101507.73;106255;1250;65946;-66
2024/01/09 06:42:17;;;;;;;10.80;4.90;;;;;;;-13.82;56.75;101507.73;105993;1256;61209;-64
2024/01/09 06:44:44;;;;;;;12.00;5.60;;;;;;;-13.76;56.75;101508.31;105938;1251;73254;-65
2024/01/09 06:47:12;;;;;;;12.70;6.50;;;;;;;-13.69;56.78;101506.02;105896;1250;61221;-63
2024/01/09 06:49:39;;;;;;;12.40;6.00;;;;;;;-13.64;56.70;101501.80;106039;1253;61344;-63
2024/01/09 06:52:06;;;;;;;12.30;6.30;;;;;;;-13.56;56.74;101496.50;105870;1250;67533;-65
2024/01/09 06:54:33;;;;;;;10.90;5.80;;;;;;;-13.47;56.74;101499.02;105864;1254;61384;-64
2024/01/09 06:57:00;;;;;;;14.20;6.30;;;;;;;-13.38;56.81;101498.50;106023;1251;63976;-65
2024/01/09 06:59:28;;;;;;;14.80;7.00;;;;;;;-13.30;56.74;101500.83;105924;1251;61247;-65
2024/01/09 07:02:00;;;;;;;15.50;7.20;;;;;;;-13.21;56.74;101503.98;105863;1253;61333;-64
2024/01/09 07:04:28;;;;;;;14.00;6.40;;;;;;;-13.13;56.58;101496.13;106001;1253;74754;-65
2024/01/09 07:06:55;;;;;;;13.70;6.30;;;;;;;-13.06;56.35;101502.45;105824;1250;61324;-65
2024/01/09 07:09:22;;;;;;;12.30;5.50;;;;;;;-13.02;56.10;101501.76;106011;1251;65723;-66
2024/01/09 07:11:49;;;;;;;11.20;5.50;;;;;;;-12.98;56.03;101500.36;105956;1251;61237;-65
2024/01/09 07:14:16;;;;;;;14.20;7.00;;;;;;;-12.90;56.09;101502.48;106077;1250;61365;-64
2024/01/09 07:16:43;;;;;;;13.60;6.00;;;;;;;-12.83;55.86;101506.64;105956;1253;66026;-65
2024/01/09 07:19:11;;;;;;;12.60;5.80;;;;;;;-12.76;55.71;101512.12;105925;1255;61281;-63
2024/01/09 07:21:38;;;;;;;11.10;5.20;;;;;;;-12.69;55.73;101510.14;105982;1253;64014;-64
2024/01/09 07:24:05;;;;;;;15.00;6.20;;;;;;;-12.64;55.41;101516.42;108099;1251;61336;-64
2024/01/09 07:26:38;;;;;;;12.40;5.00;;;;;;;-12.60;55.35;101519.25;105874;1251;61327;-64
2024/01/09 07:29:05;;;;;;;9.90;4.40;;;;;;;-12.55;55.47;101517.06;105754;1256;66271;-62
2024/01/09 07:31:31;;;;;;;9.90;4.50;;;;;;;-12.48;55.39;101518.79;106010;1253;61205;-63
2024/01/09 07:33:58;;;;;;;7.50;3.70;;;;;;;-12.42;55.37;101519.01;105822;1256;64009;-64
2024/01/09 07:36:25;;;;;;;9.50;4.70;;;;;;;-12.35;55.37;101516.00;105806;1251;61252;-66
2024/01/09 07:38:53;;;;;;;9.10;4.80;;;;;;;-12.27;55.28;101511.83;105858;1251;61741;-64
2024/01/09 07:41:20;;;;;;;9.80;5.10;;;;;;;-12.19;55.26;101510.90;105903;1253;65755;-66
2024/01/09 07:43:47;;;;;;;12.30;5.40;;;;;;;-12.09;55.37;101518.34;105987;1250;61394;-64
2024/01/09 07:46:14;;;;;;;10.40;5.40;;;;;;;-11.97;55.36;101522.42;106171;1253;62747;-62
2024/01/09 07:48:41;;;;;;;9.40;4.70;;;;;;;-11.88;55.38;101523.91;105792;1251;61250;-64
2024/01/09 07:51:09;;;;;;;8.20;4.20;;;;;;;-11.77;55.52;101525.04;106038;1251;61337;-65
2024/01/09 07:53:36;;;;;;;9.30;4.50;;;;;;;-11.66;55.50;101527.21;105772;1252;64909;-64
2024/01/09 07:56:03;;;;;;;11.80;4.80;;;;;;;-11.57;55.13;101529.02;105880;1253;61331;-65
2024/01/09 07:58:30;;;;;;;8.00;3.80;;;;;;;-11.49;54.98;101530.10;106069;1251;63979;-64
2024/01/09 08:00:57;;;;;;;8.90;3.70;;;;;;;-11.41;55.14;101524.89;105755;1250;61317;-64
2024/01/09 08:03:24;;;;;;;8.00;3.90;;;;;;;-11.32;54.99;101527.02;105839;1250;61245;-64
2024/01/09 08:05:51;;;;;;;7.90;3.50;;;;;;;-11.19;55.06;101527.88;106000;1256;67918;-67
2024/01/09 08:08:19;;;;;;;9.10;3.80;;;;;;;-11.08;54.96;101529.20;109737;1250;59062;-65
2024/01/09 08:10:46;;;;;;;7.60;3.80;;;;;;;-10.96;54.92;101527.80;109685;1250;64009;-66
2024/01/09 08:13:12;;;;;;;6.80;3.20;;;;;;;-10.86;54.89;101528.42;109680;1250;59038;-66
2024/01/09 08:15:39;;;;;;;7.80;3.80;;;;;;;-10.75;54.76;101528.88;109664;1250;59028;-65
2024/01/09 08:18:06;;;;;;;9.30;4.10;;;;;;;-10.63;54.66;101533.08;109678;1251;65828;-64
2024/01/09 08:20:33;;;;;;;8.80;5.00;;;;;;;-10.56;54.27;101538.52;109573;1250;59031;-66
2024/01/09 08:23:00;;;;;;;7.90;4.30;;;;;;;-10.50;54.30;101542.61;109719;1253;62895;-68
2024/01/09 08:25:27;;;;;;;9.50;4.50;;;;;;;-10.41;54.42;101549.14;109757;1249;59087;-66
2024/01/09 08:27:54;;;;;;;8.30;4.50;;;;;;;-10.30;54.48;101553.12;109828;1251;58938;-68
2024/01/09 08:30:21;;;;;;;11.60;4.80;;;;;;;-10.20;54.49;101558.48;109728;1250;73854;-67
2024/01/09 08:32:47;;;;;;;9.50;4.50;;;;;;;-10.10;54.63;101560.23;109727;1250;59518;-68
2024/01/09 08:35:15;;;;;;;9.20;4.40;;;;;;;-10.01;54.61;101561.80;109742;1250;64424;-67
2024/01/09 08:37:41;;;;;;;7.60;4.20;;;;;;;-9.95;54.22;101559.02;109742;1250;58972;-68
2024/01/09 08:40:09;;;;;;;11.90;6.00;;;;;;;-9.97;53.99;101555.41;109761;1250;59045;-67
2024/01/09 08:42:35;;;;;;;14.10;7.30;;;;;;;-9.95;54.26;101553.25;109765;1250;66016;-67
2024/01/09 08:45:02;;;;;;;11.10;5.30;;;;;;;-9.88;54.32;101551.88;109811;1249;58960;-67
2024/01/09 08:47:29;;;;;;;9.00;4.90;;;;;;;-9.82;54.43;101549.11;109728;1253;65080;-66
2024/01/09 08:49:57;;;;;;;9.20;5.00;;;;;;;-9.75;54.67;101543.98;109698;1250;59033;-66
2024/01/09 08:52:25;;;;;;;10.80;5.10;;;;;;;-9.69;54.65;101542.59;109726;1250;58987;-67
2024/01/09 08:54:54;;;;;;;10.10;4.50;;;;;;;-9.64;54.38;101543.89;109779;1251;66911;-66
2024/01/09 08:57:21;;;;;;;11.10;4.70;;;;;;;-9.62;54.43;101538.82;109615;1250;58936;-65
2024/01/09 08:59:48;;;;;;;9.20;4.60;;;;;;;-9.59;54.59;101538.20;109657;1250;64066;-66
2024/01/09 09:02:15;;;;;;;12.60;5.10;;;;;;;-9.53;54.76;101533.05;109631;1250;59506;-65
2024/01/09 09:04:42;;;;;;;11.10;5.80;;;;;;;-9.50;54.60;101537.52;109690;1250;58962;-67
2024/01/09 09:07:09;;;;;;;9.80;5.10;;;;;;;-9.51;54.56;101542.11;109679;1250;65818;-67
2024/01/09 09:09:36;;;;;;;12.00;5.90;;;;;;;-9.45;54.69;101537.80;109657;1250;59685;-67
2024/01/09 09:12:03;;;;;;;12.80;5.60;;;;;;;-9.38;54.68;101538.63;109644;1251;65186;-69
2024/01/09 09:14:30;;;;;;;14.70;5.40;;;;;;;-9.31;54.54;101542.35;109452;1250;58976;-68
2024/01/09 09:16:57;;;;;;;11.90;5.50;;;;;;;-9.29;54.34;101539.48;109606;1250;58973;-67
2024/01/09 09:19:27;;;;;;;10.30;5.10;;;;;;;-9.31;54.13;101535.70;109676;1251;67256;-65
2024/01/09 09:21:54;;;;;;;12.50;5.80;;;;;;;-9.34;54.24;101539.74;109706;1250;59643;-67
2024/01/09 09:24:20;;;;;;;13.40;7.70;;;;;;;-9.27;54.57;101536.13;109684;1254;65136;-66
2024/01/09 09:26:48;;;;;;;17.60;8.90;;;;;;;-9.14;54.82;101536.55;109648;1251;58855;-67
2024/01/09 09:29:15;;;;;;;17.90;9.50;;;;;;;-9.01;54.91;101542.59;109615;1250;58859;-66
2024/01/09 09:31:58;;;;;;;25.40;12.40;;;;;;;-8.88;55.13;101545.06;109433;1250;67227;-65
2024/01/09 09:34:25;;;;;;;27.50;13.50;;;;;;;-8.78;55.19;101550.19;109624;1251;58992;-67
2024/01/09 09:36:52;;;;;;;21.10;10.60;;;;;;;-8.74;55.10;101551.80;109607;1250;65219;-65
2024/01/09 09:39:19;;;;;;;22.50;11.80;;;;;;;-8.71;55.11;101553.72;109611;1251;59090;-65
2024/01/09 09:41:47;;;;;;;21.10;11.40;;;;;;;-8.68;55.16;101551.91;109578;1251;58890;-67
2024/01/09 09:44:17;;;;;;;14.90;8.50;;;;;;;-8.63;55.27;101556.25;109656;1250;67254;-65
2024/01/09 09:46:46;;;;;;;14.30;7.30;;;;;;;-8.59;55.37;101552.75;109679;1250;59473;-65
2024/01/09 09:49:13;;;;;;;16.30;8.10;;;;;;;-8.54;55.49;101550.78;109595;1255;65273;-66
2024/01/09 09:51:40;;;;;;;11.80;6.80;;;;;;;-8.48;55.62;101550.20;109616;1251;58914;-65
2024/01/09 09:54:06;;;;;;;13.10;6.50;;;;;;;-8.46;55.80;101551.80;109622;1251;58980;-65
2024/01/09 09:56:33;;;;;;;11.70;6.50;;;;;;;-8.42;56.01;101557.30;109466;1250;65964;-65
2024/01/09 09:59:00;;;;;;;10.90;6.10;;;;;;;-8.37;56.20;101558.58;109527;1251;58936;-67
2024/01/09 10:01:27;;;;;;;13.60;6.50;;;;;;;-8.35;56.22;101552.13;109596;1251;65383;-64
2024/01/09 10:04:02;;;;;;;12.20;6.10;;;;;;;-8.33;56.44;101551.95;109598;1255;58954;-65
2024/01/09 10:06:29;;;;;;;16.90;8.60;;;;;;;-8.30;56.59;101556.63;109498;1256;59045;-65
2024/01/09 10:08:56;;;;;;;14.90;7.90;;;;;;;-8.26;56.82;101556.68;109561;1255;75833;-66
2024/01/09 10:11:23;;;;;;;12.10;6.00;;;;;;;-8.21;56.95;101553.52;109628;1251;59059;-66
2024/01/09 10:13:50;;;;;;;12.50;6.20;;;;;;;-8.18;57.05;101550.16;109587;1251;70710;-66
2024/01/09 10:16:17;;;;;;;13.80;7.70;;;;;;;-8.18;57.26;101552.89;109603;1255;59031;-67
2024/01/09 10:18:44;;;;;;;24.60;11.70;;;;;;;-8.15;57.47;101556.86;109506;1251;59038;-64
2024/01/09 10:21:11;;;;;;;20.60;10.80;;;;;;;-8.11;57.61;101558.13;109363;1251;67376;-65
2024/01/09 10:23:43;;;;;;;23.40;11.90;;;;;;;-8.08;57.65;101552.55;109627;1251;59644;-68
2024/01/09 10:26:10;;;;;;;16.60;9.50;;;;;;;-8.01;57.85;101549.39;109608;1251;64442;-65
2024/01/09 10:28:37;;;;;;;16.90;9.00;;;;;;;-7.99;57.93;101549.09;109576;1251;58953;-66
2024/01/09 10:31:07;;;;;;;14.60;7.50;;;;;;;-8.00;57.98;101547.53;109515;1253;59030;-66
2024/01/09 10:33:39;;;;;;;14.60;8.10;;;;;;;-8.00;58.10;101548.90;109524;1251;64651;-65
2024/01/09 10:36:06;;;;;;;16.70;6.80;;;;;;;-7.96;58.23;101545.86;109387;1251;59428;-65
2024/01/09 10:38:33;;;;;;;12.20;6.40;;;;;;;-7.93;58.44;101544.70;109502;1251;63851;-66
2024/01/09 10:41:16;;;;;;;10.70;5.90;;;;;;;-7.87;58.70;101543.45;109551;1251;62249;-66
2024/01/09 10:43:43;;;;;;;11.20;6.40;;;;;;;-7.79;58.91;101540.48;109506;1251;58830;-66
2024/01/09 10:46:10;;;;;;;12.00;7.10;;;;;;;-7.72;59.07;101536.48;109459;1253;64447;-66
2024/01/09 10:48:39;;;;;;;11.50;6.30;;;;;;;-7.64;59.38;101535.55;109495;1253;59040;-65
2024/01/09 10:51:06;;;;;;;14.30;6.60;;;;;;;-7.58;59.52;101534.27;109319;1251;62639;-65
2024/01/09 10:53:56;;;;;;;11.90;7.20;;;;;;;-7.49;59.78;101537.13;109296;1253;61212;-67
2024/01/09 10:56:23;;;;;;;12.00;6.60;;;;;;;-7.42;59.94;101538.75;109558;1251;58951;-66
2024/01/09 10:58:50;;;;;;;14.20;7.30;;;;;;;-7.35;60.26;101537.96;109473;1254;66109;-67
2024/01/09 11:01:17;;;;;;;15.80;8.00;;;;;;;-7.32;60.56;101543.50;109489;1253;59697;-65
2024/01/09 11:03:44;;;;;;;14.50;7.50;;;;;;;-7.27;60.82;101544.06;109521;1253;63898;-65
2024/01/09 11:06:11;;;;;;;12.20;7.00;;;;;;;-7.24;61.11;101544.79;109424;1252;59140;-65